Terminal Aerodrome Forecast
Issued by NWS Paducah, KY

Home | Current Version | Previous Version | Text Only | Print | Product List | Glossary On
Versions: 1 2 3 4 5 6 7 8 9 10 11 12 13 14
000
FTUS43 KPAH 211700
TAFEVV
TAF
KEVV 211720Z 2118/2218 12007KT P6SM SCT050 BKN150
     FM212300 12008KT P6SM SCT025 BKN050
     FM220300 15006KT P6SM -SHRA SCT010 OVC025
     FM220900 17007KT P6SM VCSH SCT025 OVC035
     FM221500 18011G16KT P6SM SCT030 BKN050=

USA.gov is the U.S. government's official web portal to all federal, state and local government web resources and services.